Terminal Aerodrome Forecast
Issued by NWS Binghamton, NY

Home | Current Version | Previous Version | Text Only | Print | Product List | Glossary On
Versions: 1 2 3 4 5 6 7 8 9 10 11 12 13 14 15 16 17 18 19 20 21 22
000
FTUS41 KBGM 161737
TAFAVP
TAF
KAVP 161737Z 1618/1718 23005KT P6SM BKN200
     FM170000 20004KT P6SM OVC100
     FM170600 VRB03KT P6SM OVC040
     FM171000 VRB03KT P6SM OVC025
     FM171200 VRB04KT 2SM -RA BR OVC008=

USA.gov is the U.S. government's official web portal to all federal, state and local government web resources and services.